sensor_id;sensor_type;location;lat;lon;timestamp;P1;durP1;ratioP1;P2;durP2;ratioP2
31004;SDS011;17676;52.254;4.490;2023-12-07T00:01:31;7.13;;;2.80;;
31004;SDS011;17676;52.254;4.490;2023-12-07T00:03:59;2.43;;;2.23;;
31004;SDS011;17676;52.254;4.490;2023-12-07T00:06:25;5.47;;;2.90;;
31004;SDS011;17676;52.254;4.490;2023-12-07T00:08:51;7.53;;;3.17;;
31004;SDS011;17676;52.254;4.490;2023-12-07T00:11:17;5.80;;;2.77;;
31004;SDS011;17676;52.254;4.490;2023-12-07T00:13:43;3.60;;;3.10;;
31004;SDS011;17676;52.254;4.490;2023-12-07T00:16:08;4.43;;;2.93;;
31004;SDS011;17676;52.254;4.490;2023-12-07T00:18:35;6.37;;;3.43;;
31004;SDS011;17676;52.254;4.490;2023-12-07T00:21:02;3.83;;;3.10;;
31004;SDS011;17676;52.254;4.490;2023-12-07T00:23:28;5.00;;;3.03;;
31004;SDS011;17676;52.254;4.490;2023-12-07T00:25:53;6.93;;;3.43;;
31004;SDS011;17676;52.254;4.490;2023-12-07T00:28:19;6.97;;;2.97;;
31004;SDS011;17676;52.254;4.490;2023-12-07T00:30:44;5.33;;;3.43;;
31004;SDS011;17676;52.254;4.490;2023-12-07T00:33:10;5.93;;;3.63;;
31004;SDS011;17676;52.254;4.490;2023-12-07T00:35:35;4.03;;;3.00;;
31004;SDS011;17676;52.254;4.490;2023-12-07T00:38:01;5.60;;;3.60;;
31004;SDS011;17676;52.254;4.490;2023-12-07T00:40:27;5.30;;;3.20;;
31004;SDS011;17676;52.254;4.490;2023-12-07T00:42:53;3.97;;;3.03;;
31004;SDS011;17676;52.254;4.490;2023-12-07T00:45:18;5.13;;;3.37;;
31004;SDS011;17676;52.254;4.490;2023-12-07T00:47:44;10.53;;;3.57;;
31004;SDS011;17676;52.254;4.490;2023-12-07T00:50:13;5.33;;;3.40;;
31004;SDS011;17676;52.254;4.490;2023-12-07T00:52:39;4.13;;;2.97;;
31004;SDS011;17676;52.254;4.490;2023-12-07T00:55:05;6.30;;;3.53;;
31004;SDS011;17676;52.254;4.490;2023-12-07T00:57:31;6.37;;;3.67;;
31004;SDS011;17676;52.254;4.490;2023-12-07T00:59:56;5.20;;;3.53;;
31004;SDS011;17676;52.254;4.490;2023-12-07T01:02:22;7.60;;;3.27;;
31004;SDS011;17676;52.254;4.490;2023-12-07T01:04:48;9.40;;;3.70;;
31004;SDS011;17676;52.254;4.490;2023-12-07T01:07:14;5.83;;;3.70;;
31004;SDS011;17676;52.254;4.490;2023-12-07T01:09:39;4.70;;;3.67;;
31004;SDS011;17676;52.254;4.490;2023-12-07T01:12:05;5.03;;;3.60;;
31004;SDS011;17676;52.254;4.490;2023-12-07T01:14:31;5.20;;;3.43;;
31004;SDS011;17676;52.254;4.490;2023-12-07T01:16:57;4.77;;;4.27;;
31004;SDS011;17676;52.254;4.490;2023-12-07T01:19:23;5.67;;;3.77;;
31004;SDS011;17676;52.254;4.490;2023-12-07T01:21:50;3.87;;;3.40;;
31004;SDS011;17676;52.254;4.490;2023-12-07T01:24:15;7.70;;;4.13;;
31004;SDS011;17676;52.254;4.490;2023-12-07T01:26:41;5.73;;;3.97;;
31004;SDS011;17676;52.254;4.490;2023-12-07T01:29:07;7.00;;;4.13;;
31004;SDS011;17676;52.254;4.490;2023-12-07T01:31:32;9.03;;;4.50;;
31004;SDS011;17676;52.254;4.490;2023-12-07T01:33:58;6.10;;;4.13;;
31004;SDS011;17676;52.254;4.490;2023-12-07T01:36:24;7.03;;;4.47;;
31004;SDS011;17676;52.254;4.490;2023-12-07T01:38:49;5.73;;;4.80;;
31004;SDS011;17676;52.254;4.490;2023-12-07T01:41:15;7.60;;;4.90;;
31004;SDS011;17676;52.254;4.490;2023-12-07T01:43:46;5.60;;;4.50;;
31004;SDS011;17676;52.254;4.490;2023-12-07T01:46:12;5.90;;;4.47;;
31004;SDS011;17676;52.254;4.490;2023-12-07T01:48:39;7.27;;;4.33;;
31004;SDS011;17676;52.254;4.490;2023-12-07T01:51:05;7.90;;;5.10;;
31004;SDS011;17676;52.254;4.490;2023-12-07T01:53:32;5.40;;;4.73;;
31004;SDS011;17676;52.254;4.490;2023-12-07T01:55:58;8.83;;;5.40;;
31004;SDS011;17676;52.254;4.490;2023-12-07T01:58:24;8.10;;;4.20;;
31004;SDS011;17676;52.254;4.490;2023-12-07T02:00:50;8.40;;;4.90;;
31004;SDS011;17676;52.254;4.490;2023-12-07T02:03:16;10.30;;;6.70;;
31004;SDS011;17676;52.254;4.490;2023-12-07T02:05:43;7.93;;;5.10;;
31004;SDS011;17676;52.254;4.490;2023-12-07T02:08:12;8.40;;;5.13;;
31004;SDS011;17676;52.254;4.490;2023-12-07T02:10:38;7.53;;;4.90;;
31004;SDS011;17676;52.254;4.490;2023-12-07T02:13:06;8.97;;;5.83;;
31004;SDS011;17676;52.254;4.490;2023-12-07T02:15:33;8.57;;;5.60;;
31004;SDS011;17676;52.254;4.490;2023-12-07T02:20:45;8.83;;;5.70;;
31004;SDS011;17676;52.254;4.490;2023-12-07T02:23:17;8.47;;;5.17;;
31004;SDS011;17676;52.254;4.490;2023-12-07T02:25:51;8.93;;;5.73;;
31004;SDS011;17676;52.254;4.490;2023-12-07T02:28:18;14.70;;;6.37;;
31004;SDS011;17676;52.254;4.490;2023-12-07T02:30:43;9.10;;;6.07;;
31004;SDS011;17676;52.254;4.490;2023-12-07T02:33:10;10.03;;;5.80;;
31004;SDS011;17676;52.254;4.490;2023-12-07T02:35:36;8.80;;;6.13;;
31004;SDS011;17676;52.254;4.490;2023-12-07T02:38:02;9.13;;;6.33;;
31004;SDS011;17676;52.254;4.490;2023-12-07T02:40:32;11.83;;;7.23;;
31004;SDS011;17676;52.254;4.490;2023-12-07T02:42:59;9.20;;;6.53;;
31004;SDS011;17676;52.254;4.490;2023-12-07T02:45:25;10.70;;;6.90;;
31004;SDS011;17676;52.254;4.490;2023-12-07T02:47:52;15.53;;;7.83;;
31004;SDS011;17676;52.254;4.490;2023-12-07T02:50:17;11.63;;;7.07;;
31004;SDS011;17676;52.254;4.490;2023-12-07T02:52:43;7.67;;;6.57;;
31004;SDS011;17676;52.254;4.490;2023-12-07T02:55:11;13.80;;;7.67;;
31004;SDS011;17676;52.254;4.490;2023-12-07T02:57:37;11.57;;;8.07;;
31004;SDS011;17676;52.254;4.490;2023-12-07T03:00:03;14.37;;;8.37;;
31004;SDS011;17676;52.254;4.490;2023-12-07T03:02:36;11.83;;;7.83;;
31004;SDS011;17676;52.254;4.490;2023-12-07T03:05:03;11.50;;;8.33;;
31004;SDS011;17676;52.254;4.490;2023-12-07T03:07:29;12.17;;;7.83;;
31004;SDS011;17676;52.254;4.490;2023-12-07T03:09:55;13.77;;;8.27;;
31004;SDS011;17676;52.254;4.490;2023-12-07T03:12:20;14.10;;;8.90;;
31004;SDS011;17676;52.254;4.490;2023-12-07T03:14:48;14.77;;;8.73;;
31004;SDS011;17676;52.254;4.490;2023-12-07T03:17:13;16.97;;;8.57;;
31004;SDS011;17676;52.254;4.490;2023-12-07T03:19:42;17.17;;;9.00;;
31004;SDS011;17676;52.254;4.490;2023-12-07T03:22:08;14.40;;;9.70;;
31004;SDS011;17676;52.254;4.490;2023-12-07T03:24:36;12.80;;;8.73;;
31004;SDS011;17676;52.254;4.490;2023-12-07T03:27:03;16.50;;;10.77;;
31004;SDS011;17676;52.254;4.490;2023-12-07T03:29:29;15.17;;;10.07;;
31004;SDS011;17676;52.254;4.490;2023-12-07T03:31:55;15.87;;;9.53;;
31004;SDS011;17676;52.254;4.490;2023-12-07T03:34:21;17.20;;;11.03;;
31004;SDS011;17676;52.254;4.490;2023-12-07T03:36:46;16.33;;;10.50;;
31004;SDS011;17676;52.254;4.490;2023-12-07T03:39:13;21.73;;;10.40;;
31004;SDS011;17676;52.254;4.490;2023-12-07T03:41:45;17.87;;;10.50;;
31004;SDS011;17676;52.254;4.490;2023-12-07T03:44:11;19.33;;;11.07;;
31004;SDS011;17676;52.254;4.490;2023-12-07T03:46:36;21.37;;;12.20;;
31004;SDS011;17676;52.254;4.490;2023-12-07T03:49:02;17.73;;;11.13;;
31004;SDS011;17676;52.254;4.490;2023-12-07T03:51:28;19.57;;;11.20;;
31004;SDS011;17676;52.254;4.490;2023-12-07T03:53:54;22.07;;;12.93;;
31004;SDS011;17676;52.254;4.490;2023-12-07T03:56:26;17.60;;;11.73;;
31004;SDS011;17676;52.254;4.490;2023-12-07T03:58:53;16.77;;;11.13;;
31004;SDS011;17676;52.254;4.490;2023-12-07T04:01:23;22.10;;;12.27;;
31004;SDS011;17676;52.254;4.490;2023-12-07T04:03:50;20.20;;;12.60;;
31004;SDS011;17676;52.254;4.490;2023-12-07T04:06:24;22.83;;;12.73;;
31004;SDS011;17676;52.254;4.490;2023-12-07T04:08:50;18.00;;;11.80;;
31004;SDS011;17676;52.254;4.490;2023-12-07T04:11:15;19.23;;;11.67;;
31004;SDS011;17676;52.254;4.490;2023-12-07T04:13:41;18.00;;;11.97;;
31004;SDS011;17676;52.254;4.490;2023-12-07T04:16:08;17.00;;;11.73;;
31004;SDS011;17676;52.254;4.490;2023-12-07T04:18:34;21.30;;;12.77;;
31004;SDS011;17676;52.254;4.490;2023-12-07T04:21:00;17.47;;;11.07;;
31004;SDS011;17676;52.254;4.490;2023-12-07T04:23:26;24.07;;;12.73;;
31004;SDS011;17676;52.254;4.490;2023-12-07T04:25:52;23.70;;;12.23;;
31004;SDS011;17676;52.254;4.490;2023-12-07T04:28:18;19.30;;;12.27;;
31004;SDS011;17676;52.254;4.490;2023-12-07T04:30:43;18.67;;;11.97;;
31004;SDS011;17676;52.254;4.490;2023-12-07T04:33:09;18.03;;;11.90;;
31004;SDS011;17676;52.254;4.490;2023-12-07T04:35:35;19.27;;;11.53;;
31004;SDS011;17676;52.254;4.490;2023-12-07T04:38:00;19.27;;;12.13;;
31004;SDS011;17676;52.254;4.490;2023-12-07T04:40:26;23.90;;;12.87;;
31004;SDS011;17676;52.254;4.490;2023-12-07T04:42:52;17.47;;;11.83;;
31004;SDS011;17676;52.254;4.490;2023-12-07T04:45:18;17.83;;;11.27;;
31004;SDS011;17676;52.254;4.490;2023-12-07T04:47:44;21.27;;;11.50;;
31004;SDS011;17676;52.254;4.490;2023-12-07T04:50:10;22.93;;;12.07;;
31004;SDS011;17676;52.254;4.490;2023-12-07T04:52:36;18.83;;;11.50;;
31004;SDS011;17676;52.254;4.490;2023-12-07T04:55:03;19.93;;;11.77;;
31004;SDS011;17676;52.254;4.490;2023-12-07T04:57:29;17.67;;;11.90;;
31004;SDS011;17676;52.254;4.490;2023-12-07T04:59:54;16.90;;;12.03;;
31004;SDS011;17676;52.254;4.490;2023-12-07T05:02:20;16.97;;;11.07;;
31004;SDS011;17676;52.254;4.490;2023-12-07T05:04:46;22.50;;;12.97;;
31004;SDS011;17676;52.254;4.490;2023-12-07T05:07:12;20.73;;;12.27;;
31004;SDS011;17676;52.254;4.490;2023-12-07T05:09:38;20.47;;;12.93;;
31004;SDS011;17676;52.254;4.490;2023-12-07T05:12:04;23.83;;;13.57;;
31004;SDS011;17676;52.254;4.490;2023-12-07T05:15:05;19.17;;;12.40;;
31004;SDS011;17676;52.254;4.490;2023-12-07T05:17:34;20.53;;;13.43;;
31004;SDS011;17676;52.254;4.490;2023-12-07T05:20:15;22.67;;;13.13;;
31004;SDS011;17676;52.254;4.490;2023-12-07T05:22:41;20.80;;;12.80;;
31004;SDS011;17676;52.254;4.490;2023-12-07T05:25:07;21.03;;;13.03;;
31004;SDS011;17676;52.254;4.490;2023-12-07T05:27:33;27.27;;;14.63;;
31004;SDS011;17676;52.254;4.490;2023-12-07T05:30:01;25.07;;;14.17;;
31004;SDS011;17676;52.254;4.490;2023-12-07T05:32:26;26.47;;;14.80;;
31004;SDS011;17676;52.254;4.490;2023-12-07T05:34:52;22.70;;;13.77;;
31004;SDS011;17676;52.254;4.490;2023-12-07T05:37:18;23.07;;;15.07;;
31004;SDS011;17676;52.254;4.490;2023-12-07T05:39:43;27.87;;;15.03;;
31004;SDS011;17676;52.254;4.490;2023-12-07T05:42:09;24.13;;;14.43;;
31004;SDS011;17676;52.254;4.490;2023-12-07T05:44:35;26.23;;;15.27;;
31004;SDS011;17676;52.254;4.490;2023-12-07T05:47:01;24.40;;;15.83;;
31004;SDS011;17676;52.254;4.490;2023-12-07T05:49:29;25.50;;;15.80;;
31004;SDS011;17676;52.254;4.490;2023-12-07T05:51:55;24.83;;;16.03;;
31004;SDS011;17676;52.254;4.490;2023-12-07T05:54:21;26.13;;;15.30;;
31004;SDS011;17676;52.254;4.490;2023-12-07T05:56:49;27.23;;;17.10;;
31004;SDS011;17676;52.254;4.490;2023-12-07T05:59:15;29.50;;;18.53;;
31004;SDS011;17676;52.254;4.490;2023-12-07T06:01:43;32.17;;;17.70;;
31004;SDS011;17676;52.254;4.490;2023-12-07T06:04:09;28.33;;;14.97;;
31004;SDS011;17676;52.254;4.490;2023-12-07T06:06:37;27.33;;;16.47;;
31004;SDS011;17676;52.254;4.490;2023-12-07T06:09:02;35.93;;;19.10;;
31004;SDS011;17676;52.254;4.490;2023-12-07T06:11:32;37.17;;;18.30;;
31004;SDS011;17676;52.254;4.490;2023-12-07T06:13:57;40.93;;;21.07;;
31004;SDS011;17676;52.254;4.490;2023-12-07T06:16:24;52.37;;;21.27;;
31004;SDS011;17676;52.254;4.490;2023-12-07T06:18:52;63.00;;;25.13;;
31004;SDS011;17676;52.254;4.490;2023-12-07T06:21:21;115.63;;;24.33;;
31004;SDS011;17676;52.254;4.490;2023-12-07T06:23:46;121.63;;;26.17;;
31004;SDS011;17676;52.254;4.490;2023-12-07T06:26:12;106.57;;;23.67;;
31004;SDS011;17676;52.254;4.490;2023-12-07T06:28:37;128.20;;;27.63;;
31004;SDS011;17676;52.254;4.490;2023-12-07T06:31:06;150.87;;;29.50;;
31004;SDS011;17676;52.254;4.490;2023-12-07T06:33:32;137.77;;;26.83;;
31004;SDS011;17676;52.254;4.490;2023-12-07T06:35:59;99.67;;;26.17;;
31004;SDS011;17676;52.254;4.490;2023-12-07T06:38:25;198.37;;;29.97;;
31004;SDS011;17676;52.254;4.490;2023-12-07T06:40:51;130.23;;;26.70;;
31004;SDS011;17676;52.254;4.490;2023-12-07T06:43:16;103.47;;;25.33;;
31004;SDS011;17676;52.254;4.490;2023-12-07T06:45:42;116.20;;;25.50;;
31004;SDS011;17676;52.254;4.490;2023-12-07T06:48:08;97.83;;;25.13;;
31004;SDS011;17676;52.254;4.490;2023-12-07T06:50:33;100.53;;;26.80;;
31004;SDS011;17676;52.254;4.490;2023-12-07T06:52:59;115.67;;;25.43;;
31004;SDS011;17676;52.254;4.490;2023-12-07T06:55:24;72.73;;;22.33;;
31004;SDS011;17676;52.254;4.490;2023-12-07T06:57:50;48.47;;;21.83;;
31004;SDS011;17676;52.254;4.490;2023-12-07T07:00:15;58.33;;;16.03;;
31004;SDS011;17676;52.254;4.490;2023-12-07T07:02:43;30.20;;;10.20;;
31004;SDS011;17676;52.254;4.490;2023-12-07T07:05:09;71.83;;;22.13;;
31004;SDS011;17676;52.254;4.490;2023-12-07T07:07:36;66.93;;;21.33;;
31004;SDS011;17676;52.254;4.490;2023-12-07T07:10:03;60.13;;;19.97;;
31004;SDS011;17676;52.254;4.490;2023-12-07T07:12:29;101.27;;;23.47;;
31004;SDS011;17676;52.254;4.490;2023-12-07T07:14:55;100.73;;;23.97;;
31004;SDS011;17676;52.254;4.490;2023-12-07T07:17:20;76.77;;;20.23;;
31004;SDS011;17676;52.254;4.490;2023-12-07T07:19:46;90.87;;;21.57;;
31004;SDS011;17676;52.254;4.490;2023-12-07T07:22:11;82.60;;;18.87;;
31004;SDS011;17676;52.254;4.490;2023-12-07T07:24:37;76.30;;;20.93;;
31004;SDS011;17676;52.254;4.490;2023-12-07T07:27:02;59.93;;;17.07;;
31004;SDS011;17676;52.254;4.490;2023-12-07T07:29:28;109.53;;;22.33;;
31004;SDS011;17676;52.254;4.490;2023-12-07T07:31:54;41.20;;;14.80;;
31004;SDS011;17676;52.254;4.490;2023-12-07T07:34:20;30.17;;;12.87;;
31004;SDS011;17676;52.254;4.490;2023-12-07T07:36:46;55.83;;;13.80;;
31004;SDS011;17676;52.254;4.490;2023-12-07T07:39:12;73.53;;;14.83;;
31004;SDS011;17676;52.254;4.490;2023-12-07T07:41:38;79.97;;;18.00;;
31004;SDS011;17676;52.254;4.490;2023-12-07T07:44:04;14.27;;;6.80;;
31004;SDS011;17676;52.254;4.490;2023-12-07T07:46:30;48.93;;;12.83;;
31004;SDS011;17676;52.254;4.490;2023-12-07T07:48:55;56.57;;;14.33;;
31004;SDS011;17676;52.254;4.490;2023-12-07T07:51:21;16.67;;;8.03;;
31004;SDS011;17676;52.254;4.490;2023-12-07T07:53:47;39.67;;;12.73;;
31004;SDS011;17676;52.254;4.490;2023-12-07T07:56:12;55.27;;;18.27;;
31004;SDS011;17676;52.254;4.490;2023-12-07T07:58:38;48.43;;;13.00;;
31004;SDS011;17676;52.254;4.490;2023-12-07T08:01:04;55.63;;;15.20;;
31004;SDS011;17676;52.254;4.490;2023-12-07T08:03:30;51.67;;;14.77;;
31004;SDS011;17676;52.254;4.490;2023-12-07T08:05:55;38.27;;;13.27;;
31004;SDS011;17676;52.254;4.490;2023-12-07T08:08:21;73.43;;;16.77;;
31004;SDS011;17676;52.254;4.490;2023-12-07T08:10:47;54.93;;;12.83;;
31004;SDS011;17676;52.254;4.490;2023-12-07T08:13:13;62.53;;;13.77;;
31004;SDS011;17676;52.254;4.490;2023-12-07T08:15:38;24.57;;;7.07;;
31004;SDS011;17676;52.254;4.490;2023-12-07T08:18:04;63.47;;;13.50;;
31004;SDS011;17676;52.254;4.490;2023-12-07T08:20:30;41.70;;;9.07;;
31004;SDS011;17676;52.254;4.490;2023-12-07T08:22:56;23.97;;;6.80;;
31004;SDS011;17676;52.254;4.490;2023-12-07T08:25:21;34.53;;;9.23;;
31004;SDS011;17676;52.254;4.490;2023-12-07T08:27:47;29.67;;;9.23;;
31004;SDS011;17676;52.254;4.490;2023-12-07T08:30:13;30.80;;;12.80;;
31004;SDS011;17676;52.254;4.490;2023-12-07T08:32:38;72.67;;;13.13;;
31004;SDS011;17676;52.254;4.490;2023-12-07T08:35:04;54.60;;;13.13;;
31004;SDS011;17676;52.254;4.490;2023-12-07T08:37:31;25.97;;;8.47;;
31004;SDS011;17676;52.254;4.490;2023-12-07T08:39:57;32.77;;;9.90;;
31004;SDS011;17676;52.254;4.490;2023-12-07T08:42:23;58.37;;;13.07;;
31004;SDS011;17676;52.254;4.490;2023-12-07T08:44:49;51.07;;;12.63;;
31004;SDS011;17676;52.254;4.490;2023-12-07T08:47:15;58.43;;;12.63;;
31004;SDS011;17676;52.254;4.490;2023-12-07T08:49:40;54.37;;;13.57;;
31004;SDS011;17676;52.254;4.490;2023-12-07T08:52:06;44.67;;;12.10;;
31004;SDS011;17676;52.254;4.490;2023-12-07T08:54:31;20.87;;;9.27;;
31004;SDS011;17676;52.254;4.490;2023-12-07T08:56:57;33.30;;;11.27;;
31004;SDS011;17676;52.254;4.490;2023-12-07T08:59:23;40.47;;;11.93;;
31004;SDS011;17676;52.254;4.490;2023-12-07T09:01:49;53.60;;;13.47;;
31004;SDS011;17676;52.254;4.490;2023-12-07T09:04:14;22.87;;;9.83;;
31004;SDS011;17676;52.254;4.490;2023-12-07T09:06:40;66.67;;;14.73;;
31004;SDS011;17676;52.254;4.490;2023-12-07T09:09:05;38.03;;;11.37;;
31004;SDS011;17676;52.254;4.490;2023-12-07T09:11:31;46.23;;;13.00;;
31004;SDS011;17676;52.254;4.490;2023-12-07T09:13:57;48.07;;;13.20;;
31004;SDS011;17676;52.254;4.490;2023-12-07T09:16:23;30.27;;;7.20;;
31004;SDS011;17676;52.254;4.490;2023-12-07T09:18:50;42.77;;;11.97;;
31004;SDS011;17676;52.254;4.490;2023-12-07T09:21:17;48.93;;;13.13;;
31004;SDS011;17676;52.254;4.490;2023-12-07T09:23:42;62.90;;;10.63;;
31004;SDS011;17676;52.254;4.490;2023-12-07T09:26:08;20.70;;;6.83;;
31004;SDS011;17676;52.254;4.490;2023-12-07T09:28:33;41.67;;;11.37;;
31004;SDS011;17676;52.254;4.490;2023-12-07T09:30:59;42.20;;;9.73;;
31004;SDS011;17676;52.254;4.490;2023-12-07T09:33:25;29.03;;;8.03;;
31004;SDS011;17676;52.254;4.490;2023-12-07T09:35:50;11.93;;;4.00;;
31004;SDS011;17676;52.254;4.490;2023-12-07T09:38:16;27.97;;;6.33;;
31004;SDS011;17676;52.254;4.490;2023-12-07T09:40:42;12.57;;;4.23;;
31004;SDS011;17676;52.254;4.490;2023-12-07T09:43:08;47.70;;;9.53;;
31004;SDS011;17676;52.254;4.490;2023-12-07T09:45:35;41.90;;;9.77;;
31004;SDS011;17676;52.254;4.490;2023-12-07T09:48:00;59.67;;;11.77;;
31004;SDS011;17676;52.254;4.490;2023-12-07T09:50:27;41.47;;;11.57;;
31004;SDS011;17676;52.254;4.490;2023-12-07T09:52:54;36.43;;;10.20;;
31004;SDS011;17676;52.254;4.490;2023-12-07T09:55:22;55.90;;;11.43;;
31004;SDS011;17676;52.254;4.490;2023-12-07T09:57:48;58.83;;;12.57;;
31004;SDS011;17676;52.254;4.490;2023-12-07T10:00:15;82.10;;;14.17;;
31004;SDS011;17676;52.254;4.490;2023-12-07T10:02:41;48.67;;;13.27;;
31004;SDS011;17676;52.254;4.490;2023-12-07T10:05:11;67.80;;;14.20;;
31004;SDS011;17676;52.254;4.490;2023-12-07T10:07:44;76.27;;;14.03;;
31004;SDS011;17676;52.254;4.490;2023-12-07T10:10:13;51.83;;;12.57;;
31004;SDS011;17676;52.254;4.490;2023-12-07T10:12:46;50.07;;;15.67;;
31004;SDS011;17676;52.254;4.490;2023-12-07T10:15:15;57.60;;;12.93;;
31004;SDS011;17676;52.254;4.490;2023-12-07T10:20:16;38.77;;;9.93;;
31004;SDS011;17676;52.254;4.490;2023-12-07T10:22:49;55.00;;;15.17;;
31004;SDS011;17676;52.254;4.490;2023-12-07T10:25:29;44.60;;;14.83;;
31004;SDS011;17676;52.254;4.490;2023-12-07T10:28:01;65.97;;;15.67;;
31004;SDS011;17676;52.254;4.490;2023-12-07T10:30:31;43.80;;;10.27;;
31004;SDS011;17676;52.254;4.490;2023-12-07T10:32:57;56.60;;;17.00;;
31004;SDS011;17676;52.254;4.490;2023-12-07T10:35:23;57.93;;;15.57;;
31004;SDS011;17676;52.254;4.490;2023-12-07T10:37:49;71.43;;;16.73;;
31004;SDS011;17676;52.254;4.490;2023-12-07T10:40:14;52.53;;;14.40;;
31004;SDS011;17676;52.254;4.490;2023-12-07T10:42:41;53.47;;;16.47;;
31004;SDS011;17676;52.254;4.490;2023-12-07T10:45:07;66.83;;;18.70;;
31004;SDS011;17676;52.254;4.490;2023-12-07T10:47:37;65.60;;;16.80;;
31004;SDS011;17676;52.254;4.490;2023-12-07T10:50:07;75.00;;;16.70;;
31004;SDS011;17676;52.254;4.490;2023-12-07T10:52:36;51.90;;;17.10;;
31004;SDS011;17676;52.254;4.490;2023-12-07T10:55:16;59.23;;;16.83;;
31004;SDS011;17676;52.254;4.490;2023-12-07T10:57:43;46.17;;;15.63;;
31004;SDS011;17676;52.254;4.490;2023-12-07T11:00:09;70.13;;;16.10;;
31004;SDS011;17676;52.254;4.490;2023-12-07T11:02:36;52.73;;;16.73;;
31004;SDS011;17676;52.254;4.490;2023-12-07T11:05:03;52.00;;;17.27;;
31004;SDS011;17676;52.254;4.490;2023-12-07T11:07:34;55.87;;;15.93;;
31004;SDS011;17676;52.254;4.490;2023-12-07T11:10:30;40.00;;;12.60;;
31004;SDS011;17676;52.254;4.490;2023-12-07T11:13:05;41.60;;;16.27;;
31004;SDS011;17676;52.254;4.490;2023-12-07T11:15:40;46.10;;;15.67;;
31004;SDS011;17676;52.254;4.490;2023-12-07T11:18:06;53.63;;;16.07;;
31004;SDS011;17676;52.254;4.490;2023-12-07T11:20:32;40.47;;;13.63;;
31004;SDS011;17676;52.254;4.490;2023-12-07T11:23:04;28.10;;;10.73;;
31004;SDS011;17676;52.254;4.490;2023-12-07T11:25:31;39.23;;;16.93;;
31004;SDS011;17676;52.254;4.490;2023-12-07T11:28:01;33.90;;;12.97;;
31004;SDS011;17676;52.254;4.490;2023-12-07T11:30:27;39.07;;;16.50;;
31004;SDS011;17676;52.254;4.490;2023-12-07T11:32:55;44.37;;;18.60;;
31004;SDS011;17676;52.254;4.490;2023-12-07T11:35:21;45.30;;;17.80;;
31004;SDS011;17676;52.254;4.490;2023-12-07T11:38:02;40.23;;;16.13;;
31004;SDS011;17676;52.254;4.490;2023-12-07T11:40:34;42.10;;;17.87;;
31004;SDS011;17676;52.254;4.490;2023-12-07T11:43:01;48.40;;;18.13;;
31004;SDS011;17676;52.254;4.490;2023-12-07T11:45:36;50.33;;;18.23;;
31004;SDS011;17676;52.254;4.490;2023-12-07T11:48:14;43.17;;;17.60;;
31004;SDS011;17676;52.254;4.490;2023-12-07T11:53:31;45.70;;;17.63;;
31004;SDS011;17676;52.254;4.490;2023-12-07T11:55:58;42.77;;;17.93;;
31004;SDS011;17676;52.254;4.490;2023-12-07T11:58:28;41.17;;;18.27;;
31004;SDS011;17676;52.254;4.490;2023-12-07T12:00:55;45.87;;;18.67;;
31004;SDS011;17676;52.254;4.490;2023-12-07T12:03:25;47.70;;;18.60;;
31004;SDS011;17676;52.254;4.490;2023-12-07T12:05:51;51.67;;;20.00;;
31004;SDS011;17676;52.254;4.490;2023-12-07T12:08:18;49.30;;;20.10;;
31004;SDS011;17676;52.254;4.490;2023-12-07T12:10:44;49.17;;;20.53;;
31004;SDS011;17676;52.254;4.490;2023-12-07T12:13:11;44.03;;;16.80;;
31004;SDS011;17676;52.254;4.490;2023-12-07T12:15:39;48.90;;;20.33;;
31004;SDS011;17676;52.254;4.490;2023-12-07T12:18:05;56.80;;;21.60;;
31004;SDS011;17676;52.254;4.490;2023-12-07T12:20:32;51.70;;;19.57;;
31004;SDS011;17676;52.254;4.490;2023-12-07T12:22:58;45.10;;;20.73;;
31004;SDS011;17676;52.254;4.490;2023-12-07T12:25:25;50.20;;;19.70;;
31004;SDS011;17676;52.254;4.490;2023-12-07T12:27:53;49.67;;;21.37;;
31004;SDS011;17676;52.254;4.490;2023-12-07T12:30:21;52.20;;;20.50;;
31004;SDS011;17676;52.254;4.490;2023-12-07T12:32:50;50.17;;;20.50;;
31004;SDS011;17676;52.254;4.490;2023-12-07T12:35:16;41.50;;;16.43;;
31004;SDS011;17676;52.254;4.490;2023-12-07T12:37:46;43.40;;;19.40;;
31004;SDS011;17676;52.254;4.490;2023-12-07T12:40:14;41.70;;;17.17;;
31004;SDS011;17676;52.254;4.490;2023-12-07T12:42:42;42.30;;;19.67;;
31004;SDS011;17676;52.254;4.490;2023-12-07T12:45:08;45.30;;;19.23;;
31004;SDS011;17676;52.254;4.490;2023-12-07T12:47:36;46.23;;;20.37;;
31004;SDS011;17676;52.254;4.490;2023-12-07T12:50:02;44.90;;;19.70;;
31004;SDS011;17676;52.254;4.490;2023-12-07T12:52:30;38.23;;;16.23;;
31004;SDS011;17676;52.254;4.490;2023-12-07T12:54:56;43.80;;;19.33;;
31004;SDS011;17676;52.254;4.490;2023-12-07T12:57:23;44.20;;;19.10;;
31004;SDS011;17676;52.254;4.490;2023-12-07T12:59:50;46.93;;;20.00;;
31004;SDS011;17676;52.254;4.490;2023-12-07T13:02:16;46.20;;;18.83;;
31004;SDS011;17676;52.254;4.490;2023-12-07T13:04:43;37.07;;;17.30;;
31004;SDS011;17676;52.254;4.490;2023-12-07T13:07:10;44.60;;;18.63;;
31004;SDS011;17676;52.254;4.490;2023-12-07T13:09:40;39.10;;;18.00;;
31004;SDS011;17676;52.254;4.490;2023-12-07T13:12:06;43.50;;;20.03;;
31004;SDS011;17676;52.254;4.490;2023-12-07T13:14:34;38.93;;;18.47;;
31004;SDS011;17676;52.254;4.490;2023-12-07T13:17:03;40.00;;;18.37;;
31004;SDS011;17676;52.254;4.490;2023-12-07T13:19:29;41.73;;;18.20;;
31004;SDS011;17676;52.254;4.490;2023-12-07T13:21:54;43.67;;;18.80;;
31004;SDS011;17676;52.254;4.490;2023-12-07T13:24:20;42.93;;;19.00;;
31004;SDS011;17676;52.254;4.490;2023-12-07T13:26:45;44.60;;;20.30;;
31004;SDS011;17676;52.254;4.490;2023-12-07T13:29:12;40.63;;;19.77;;
31004;SDS011;17676;52.254;4.490;2023-12-07T13:31:38;47.20;;;19.97;;
31004;SDS011;17676;52.254;4.490;2023-12-07T13:34:03;42.57;;;20.10;;
31004;SDS011;17676;52.254;4.490;2023-12-07T13:36:29;41.67;;;20.00;;
31004;SDS011;17676;52.254;4.490;2023-12-07T13:38:56;37.67;;;19.33;;
31004;SDS011;17676;52.254;4.490;2023-12-07T13:41:22;35.50;;;18.10;;
31004;SDS011;17676;52.254;4.490;2023-12-07T13:43:48;36.90;;;19.40;;
31004;SDS011;17676;52.254;4.490;2023-12-07T13:46:15;40.53;;;18.10;;
31004;SDS011;17676;52.254;4.490;2023-12-07T13:48:42;41.83;;;19.67;;
31004;SDS011;17676;52.254;4.490;2023-12-07T13:51:08;37.93;;;17.70;;
31004;SDS011;17676;52.254;4.490;2023-12-07T13:53:34;37.77;;;18.20;;
31004;SDS011;17676;52.254;4.490;2023-12-07T13:56:03;37.23;;;18.07;;
31004;SDS011;17676;52.254;4.490;2023-12-07T13:58:29;37.20;;;19.40;;
31004;SDS011;17676;52.254;4.490;2023-12-07T14:00:55;37.57;;;19.20;;
31004;SDS011;17676;52.254;4.490;2023-12-07T14:03:21;41.20;;;19.43;;
31004;SDS011;17676;52.254;4.490;2023-12-07T14:05:46;40.43;;;19.80;;
31004;SDS011;17676;52.254;4.490;2023-12-07T14:08:13;40.63;;;20.73;;
31004;SDS011;17676;52.254;4.490;2023-12-07T14:10:39;45.30;;;21.43;;
31004;SDS011;17676;52.254;4.490;2023-12-07T14:13:04;41.57;;;19.67;;
31004;SDS011;17676;52.254;4.490;2023-12-07T14:15:30;42.17;;;20.97;;
31004;SDS011;17676;52.254;4.490;2023-12-07T14:18:00;40.17;;;19.63;;
31004;SDS011;17676;52.254;4.490;2023-12-07T14:20:27;39.67;;;20.30;;
31004;SDS011;17676;52.254;4.490;2023-12-07T14:22:53;42.17;;;20.07;;
31004;SDS011;17676;52.254;4.490;2023-12-07T14:25:20;51.70;;;20.60;;
31004;SDS011;17676;52.254;4.490;2023-12-07T14:27:45;44.73;;;20.00;;
31004;SDS011;17676;52.254;4.490;2023-12-07T14:30:11;38.67;;;18.90;;
31004;SDS011;17676;52.254;4.490;2023-12-07T14:32:37;45.97;;;21.03;;